sensor_id;sensor_type;location;lat;lon;timestamp;P1;durP1;ratioP1;P2;durP2;ratioP2
17636;SDS011;8937;51.236;6.794;2023-05-07T00:07:08;2.10;;;2.00;;
17636;SDS011;8937;51.236;6.794;2023-05-07T00:15:31;2.43;;;2.23;;
17636;SDS011;8937;51.236;6.794;2023-05-07T00:23:52;2.40;;;2.17;;
17636;SDS011;8937;51.236;6.794;2023-05-07T00:32:15;2.37;;;1.90;;
17636;SDS011;8937;51.236;6.794;2023-05-07T00:40:36;1.97;;;1.87;;
17636;SDS011;8937;51.236;6.794;2023-05-07T00:48:59;2.07;;;1.90;;
17636;SDS011;8937;51.236;6.794;2023-05-07T00:57:20;2.20;;;2.10;;
17636;SDS011;8937;51.236;6.794;2023-05-07T01:05:44;2.43;;;2.17;;
17636;SDS011;8937;51.236;6.794;2023-05-07T01:14:06;1.87;;;1.77;;
17636;SDS011;8937;51.236;6.794;2023-05-07T01:22:30;2.00;;;1.90;;
17636;SDS011;8937;51.236;6.794;2023-05-07T01:30:54;2.57;;;2.07;;
17636;SDS011;8937;51.236;6.794;2023-05-07T01:39:17;2.37;;;1.70;;
17636;SDS011;8937;51.236;6.794;2023-05-07T01:47:39;2.10;;;2.00;;
17636;SDS011;8937;51.236;6.794;2023-05-07T01:56:02;2.10;;;1.90;;
17636;SDS011;8937;51.236;6.794;2023-05-07T02:04:23;2.07;;;1.87;;
17636;SDS011;8937;51.236;6.794;2023-05-07T02:12:46;2.00;;;1.90;;
17636;SDS011;8937;51.236;6.794;2023-05-07T02:21:07;2.27;;;2.07;;
17636;SDS011;8937;51.236;6.794;2023-05-07T02:29:30;1.67;;;1.57;;
17636;SDS011;8937;51.236;6.794;2023-05-07T02:37:51;1.40;;;1.40;;
17636;SDS011;8937;51.236;6.794;2023-05-07T02:46:14;2.53;;;1.50;;
17636;SDS011;8937;51.236;6.794;2023-05-07T02:54:35;1.40;;;1.40;;
17636;SDS011;8937;51.236;6.794;2023-05-07T03:02:58;1.47;;;1.47;;
17636;SDS011;8937;51.236;6.794;2023-05-07T03:11:20;4.20;;;1.60;;
17636;SDS011;8937;51.236;6.794;2023-05-07T03:19:42;1.63;;;1.53;;
17636;SDS011;8937;51.236;6.794;2023-05-07T03:28:04;1.50;;;1.50;;
17636;SDS011;8937;51.236;6.794;2023-05-07T03:36:27;1.40;;;1.40;;
17636;SDS011;8937;51.236;6.794;2023-05-07T03:44:48;1.40;;;1.30;;
17636;SDS011;8937;51.236;6.794;2023-05-07T03:53:11;3.87;;;1.63;;
17636;SDS011;8937;51.236;6.794;2023-05-07T04:01:32;1.80;;;1.70;;
17636;SDS011;8937;51.236;6.794;2023-05-07T04:09:55;1.80;;;1.70;;
17636;SDS011;8937;51.236;6.794;2023-05-07T04:18:17;1.73;;;1.40;;
17636;SDS011;8937;51.236;6.794;2023-05-07T04:26:40;2.00;;;1.33;;
17636;SDS011;8937;51.236;6.794;2023-05-07T04:35:01;1.57;;;1.50;;
17636;SDS011;8937;51.236;6.794;2023-05-07T04:43:24;1.53;;;1.43;;
17636;SDS011;8937;51.236;6.794;2023-05-07T04:51:45;1.70;;;1.50;;
17636;SDS011;8937;51.236;6.794;2023-05-07T05:00:08;1.60;;;1.50;;
17636;SDS011;8937;51.236;6.794;2023-05-07T05:08:30;4.63;;;1.33;;
17636;SDS011;8937;51.236;6.794;2023-05-07T05:16:53;2.77;;;1.20;;
17636;SDS011;8937;51.236;6.794;2023-05-07T05:25:14;1.50;;;1.40;;
17636;SDS011;8937;51.236;6.794;2023-05-07T05:33:37;1.10;;;1.10;;
17636;SDS011;8937;51.236;6.794;2023-05-07T05:41:58;6.23;;;4.37;;
17636;SDS011;8937;51.236;6.794;2023-05-07T05:50:21;2.30;;;2.10;;
17636;SDS011;8937;51.236;6.794;2023-05-07T05:58:42;3.30;;;3.00;;
17636;SDS011;8937;51.236;6.794;2023-05-07T06:07:05;4.20;;;3.20;;
17636;SDS011;8937;51.236;6.794;2023-05-07T06:15:26;1.70;;;1.60;;
17636;SDS011;8937;51.236;6.794;2023-05-07T06:23:49;1.77;;;1.40;;
17636;SDS011;8937;51.236;6.794;2023-05-07T06:32:12;1.20;;;1.10;;
17636;SDS011;8937;51.236;6.794;2023-05-07T06:40:35;1.27;;;1.27;;
17636;SDS011;8937;51.236;6.794;2023-05-07T06:48:57;1.40;;;1.30;;
17636;SDS011;8937;51.236;6.794;2023-05-07T06:57:19;1.47;;;1.37;;
17636;SDS011;8937;51.236;6.794;2023-05-07T07:05:41;1.25;;;1.20;;
17636;SDS011;8937;51.236;6.794;2023-05-07T07:14:04;1.30;;;1.30;;
17636;SDS011;8937;51.236;6.794;2023-05-07T07:22:26;1.30;;;1.20;;
17636;SDS011;8937;51.236;6.794;2023-05-07T07:30:49;1.70;;;1.60;;
17636;SDS011;8937;51.236;6.794;2023-05-07T07:39:10;1.23;;;1.23;;
17636;SDS011;8937;51.236;6.794;2023-05-07T07:47:33;1.48;;;1.30;;
17636;SDS011;8937;51.236;6.794;2023-05-07T07:55:55;1.05;;;1.05;;
17636;SDS011;8937;51.236;6.794;2023-05-07T08:04:18;1.75;;;1.65;;
17636;SDS011;8937;51.236;6.794;2023-05-07T08:12:40;5.70;;;2.45;;
17636;SDS011;8937;51.236;6.794;2023-05-07T08:21:03;1.67;;;1.58;;
17636;SDS011;8937;51.236;6.794;2023-05-07T08:29:25;1.23;;;1.23;;
17636;SDS011;8937;51.236;6.794;2023-05-07T08:37:47;1.85;;;1.38;;
17636;SDS011;8937;51.236;6.794;2023-05-07T08:46:09;3.45;;;1.88;;
17636;SDS011;8937;51.236;6.794;2023-05-07T08:54:32;2.63;;;1.42;;
17636;SDS011;8937;51.236;6.794;2023-05-07T09:02:54;1.23;;;1.05;;
17636;SDS011;8937;51.236;6.794;2023-05-07T09:11:17;1.13;;;1.13;;
17636;SDS011;8937;51.236;6.794;2023-05-07T09:19:41;2.05;;;1.20;;
17636;SDS011;8937;51.236;6.794;2023-05-07T09:28:04;1.20;;;1.20;;
17636;SDS011;8937;51.236;6.794;2023-05-07T09:36:26;1.13;;;1.10;;
17636;SDS011;8937;51.236;6.794;2023-05-07T09:44:49;1.38;;;1.27;;
17636;SDS011;8937;51.236;6.794;2023-05-07T09:53:11;1.40;;;1.20;;
17636;SDS011;8937;51.236;6.794;2023-05-07T10:01:36;1.10;;;1.10;;
17636;SDS011;8937;51.236;6.794;2023-05-07T10:09:58;1.15;;;1.10;;
17636;SDS011;8937;51.236;6.794;2023-05-07T10:18:22;1.15;;;1.10;;
17636;SDS011;8937;51.236;6.794;2023-05-07T10:26:49;2.10;;;1.17;;
17636;SDS011;8937;51.236;6.794;2023-05-07T10:35:16;1.38;;;0.80;;
17636;SDS011;8937;51.236;6.794;2023-05-07T10:43:39;0.93;;;0.90;;
17636;SDS011;8937;51.236;6.794;2023-05-07T10:52:15;1.27;;;0.80;;
17636;SDS011;8937;51.236;6.794;2023-05-07T11:00:41;0.75;;;0.75;;
17636;SDS011;8937;51.236;6.794;2023-05-07T11:09:04;1.08;;;1.08;;
17636;SDS011;8937;51.236;6.794;2023-05-07T11:17:26;1.10;;;1.10;;
17636;SDS011;8937;51.236;6.794;2023-05-07T11:25:53;2.40;;;1.20;;
17636;SDS011;8937;51.236;6.794;2023-05-07T11:34:22;1.52;;;0.70;;
17636;SDS011;8937;51.236;6.794;2023-05-07T11:42:45;4.03;;;3.65;;
17636;SDS011;8937;51.236;6.794;2023-05-07T11:51:06;1.30;;;1.27;;
17636;SDS011;8937;51.236;6.794;2023-05-07T11:59:30;0.77;;;0.77;;
17636;SDS011;8937;51.236;6.794;2023-05-07T12:07:55;1.77;;;1.10;;
17636;SDS011;8937;51.236;6.794;2023-05-07T12:16:18;0.90;;;0.90;;
17636;SDS011;8937;51.236;6.794;2023-05-07T12:24:43;1.08;;;1.08;;
17636;SDS011;8937;51.236;6.794;2023-05-07T12:33:06;1.85;;;0.90;;
17636;SDS011;8937;51.236;6.794;2023-05-07T12:41:27;1.27;;;1.10;;
17636;SDS011;8937;51.236;6.794;2023-05-07T12:49:50;1.15;;;1.00;;
17636;SDS011;8937;51.236;6.794;2023-05-07T12:58:15;1.23;;;1.13;;
17636;SDS011;8937;51.236;6.794;2023-05-07T13:06:39;2.30;;;1.45;;
17636;SDS011;8937;51.236;6.794;2023-05-07T13:15:00;1.25;;;1.05;;
17636;SDS011;8937;51.236;6.794;2023-05-07T13:23:23;2.42;;;1.63;;
17636;SDS011;8937;51.236;6.794;2023-05-07T13:31:44;2.25;;;1.30;;
17636;SDS011;8937;51.236;6.794;2023-05-07T13:40:08;1.65;;;1.40;;
17636;SDS011;8937;51.236;6.794;2023-05-07T13:48:29;1.38;;;0.80;;
17636;SDS011;8937;51.236;6.794;2023-05-07T13:56:52;2.88;;;1.35;;
17636;SDS011;8937;51.236;6.794;2023-05-07T14:05:13;2.05;;;1.95;;
17636;SDS011;8937;51.236;6.794;2023-05-07T14:13:36;1.60;;;1.60;;
17636;SDS011;8937;51.236;6.794;2023-05-07T14:21:58;2.53;;;1.60;;
17636;SDS011;8937;51.236;6.794;2023-05-07T14:30:20;4.05;;;3.30;;
17636;SDS011;8937;51.236;6.794;2023-05-07T14:38:44;2.42;;;2.30;;
17636;SDS011;8937;51.236;6.794;2023-05-07T14:47:07;1.50;;;1.40;;
17636;SDS011;8937;51.236;6.794;2023-05-07T14:55:28;1.60;;;1.50;;
17636;SDS011;8937;51.236;6.794;2023-05-07T15:03:51;1.70;;;1.60;;
17636;SDS011;8937;51.236;6.794;2023-05-07T15:12:15;2.55;;;2.35;;
17636;SDS011;8937;51.236;6.794;2023-05-07T15:20:37;4.25;;;3.20;;
17636;SDS011;8937;51.236;6.794;2023-05-07T15:28:59;2.05;;;1.95;;
17636;SDS011;8937;51.236;6.794;2023-05-07T15:37:24;2.72;;;2.53;;
17636;SDS011;8937;51.236;6.794;2023-05-07T15:45:45;2.20;;;2.08;;
17636;SDS011;8937;51.236;6.794;2023-05-07T15:54:08;2.25;;;2.13;;
17636;SDS011;8937;51.236;6.794;2023-05-07T16:02:30;2.80;;;2.60;;
17636;SDS011;8937;51.236;6.794;2023-05-07T16:10:53;2.58;;;2.45;;
17636;SDS011;8937;51.236;6.794;2023-05-07T16:19:15;2.45;;;2.25;;
17636;SDS011;8937;51.236;6.794;2023-05-07T16:27:38;3.38;;;2.60;;
17636;SDS011;8937;51.236;6.794;2023-05-07T16:36:00;2.45;;;2.35;;
17636;SDS011;8937;51.236;6.794;2023-05-07T16:44:23;2.30;;;2.20;;
17636;SDS011;8937;51.236;6.794;2023-05-07T16:52:46;2.70;;;2.50;;
17636;SDS011;8937;51.236;6.794;2023-05-07T17:01:09;2.38;;;2.00;;
17636;SDS011;8937;51.236;6.794;2023-05-07T17:09:31;2.05;;;1.95;;
17636;SDS011;8937;51.236;6.794;2023-05-07T17:17:54;2.15;;;2.05;;
17636;SDS011;8937;51.236;6.794;2023-05-07T17:26:16;2.00;;;1.90;;
17636;SDS011;8937;51.236;6.794;2023-05-07T17:34:40;1.65;;;1.55;;
17636;SDS011;8937;51.236;6.794;2023-05-07T17:43:01;1.52;;;1.52;;
17636;SDS011;8937;51.236;6.794;2023-05-07T17:51:24;1.80;;;1.60;;
17636;SDS011;8937;51.236;6.794;2023-05-07T17:59:48;2.88;;;2.17;;
17636;SDS011;8937;51.236;6.794;2023-05-07T18:08:11;2.53;;;2.33;;
17636;SDS011;8937;51.236;6.794;2023-05-07T18:16:32;3.80;;;2.95;;
17636;SDS011;8937;51.236;6.794;2023-05-07T18:24:55;3.75;;;2.13;;
17636;SDS011;8937;51.236;6.794;2023-05-07T18:33:17;2.72;;;2.05;;
17636;SDS011;8937;51.236;6.794;2023-05-07T18:41:40;2.83;;;2.30;;
17636;SDS011;8937;51.236;6.794;2023-05-07T18:50:01;2.67;;;2.42;;
17636;SDS011;8937;51.236;6.794;2023-05-07T18:58:24;2.72;;;2.40;;
17636;SDS011;8937;51.236;6.794;2023-05-07T19:06:46;2.60;;;2.50;;
17636;SDS011;8937;51.236;6.794;2023-05-07T19:15:09;2.67;;;2.50;;
17636;SDS011;8937;51.236;6.794;2023-05-07T19:23:31;2.67;;;2.47;;
17636;SDS011;8937;51.236;6.794;2023-05-07T19:31:54;2.40;;;2.20;;
17636;SDS011;8937;51.236;6.794;2023-05-07T19:40:16;3.00;;;2.70;;
17636;SDS011;8937;51.236;6.794;2023-05-07T19:48:38;2.72;;;2.53;;
17636;SDS011;8937;51.236;6.794;2023-05-07T19:57:01;3.25;;;2.63;;
17636;SDS011;8937;51.236;6.794;2023-05-07T20:05:24;2.78;;;2.55;;
17636;SDS011;8937;51.236;6.794;2023-05-07T20:13:47;2.50;;;2.40;;
17636;SDS011;8937;51.236;6.794;2023-05-07T20:22:09;2.70;;;2.53;;
17636;SDS011;8937;51.236;6.794;2023-05-07T20:30:31;3.97;;;3.47;;
17636;SDS011;8937;51.236;6.794;2023-05-07T20:38:53;3.05;;;2.78;;
17636;SDS011;8937;51.236;6.794;2023-05-07T20:47:15;3.23;;;2.80;;
17636;SDS011;8937;51.236;6.794;2023-05-07T20:55:38;2.70;;;2.60;;
17636;SDS011;8937;51.236;6.794;2023-05-07T21:03:59;3.47;;;3.17;;
17636;SDS011;8937;51.236;6.794;2023-05-07T21:12:22;3.03;;;2.73;;
17636;SDS011;8937;51.236;6.794;2023-05-07T21:20:44;3.67;;;2.87;;
17636;SDS011;8937;51.236;6.794;2023-05-07T21:29:06;3.30;;;2.60;;
17636;SDS011;8937;51.236;6.794;2023-05-07T21:37:28;3.17;;;2.87;;
17636;SDS011;8937;51.236;6.794;2023-05-07T21:45:51;2.80;;;2.60;;
17636;SDS011;8937;51.236;6.794;2023-05-07T21:54:13;3.10;;;2.93;;
17636;SDS011;8937;51.236;6.794;2023-05-07T22:02:37;3.07;;;2.87;;
17636;SDS011;8937;51.236;6.794;2023-05-07T22:10:58;4.10;;;3.00;;
17636;SDS011;8937;51.236;6.794;2023-05-07T22:19:21;3.50;;;3.30;;
17636;SDS011;8937;51.236;6.794;2023-05-07T22:27:42;3.50;;;3.30;;
17636;SDS011;8937;51.236;6.794;2023-05-07T22:36:06;3.53;;;3.23;;
17636;SDS011;8937;51.236;6.794;2023-05-07T22:44:27;3.60;;;3.30;;
17636;SDS011;8937;51.236;6.794;2023-05-07T22:52:50;3.67;;;3.40;;
17636;SDS011;8937;51.236;6.794;2023-05-07T23:01:12;3.77;;;3.47;;
17636;SDS011;8937;51.236;6.794;2023-05-07T23:09:35;3.90;;;3.60;;
17636;SDS011;8937;51.236;6.794;2023-05-07T23:17:56;4.33;;;3.90;;
17636;SDS011;8937;51.236;6.794;2023-05-07T23:26:19;7.93;;;4.17;;
17636;SDS011;8937;51.236;6.794;2023-05-07T23:34:40;4.80;;;4.03;;
17636;SDS011;8937;51.236;6.794;2023-05-07T23:43:03;4.07;;;3.70;;
17636;SDS011;8937;51.236;6.794;2023-05-07T23:51:24;4.33;;;3.93;;
17636;SDS011;8937;51.236;6.794;2023-05-07T23:59:47;4.70;;;3.67;;
